Time;durP1;ratioP1;P1;durP2;ratioP2;P2;SDS_P1;SDS_P2;PMS_P1;PMS_P2;Temp;Humidity;BMP_temperature;BMP_pressure;BME280_temperature;BME280_humidity;BME280_pressure;Samples;Min_cycle;Max_cycle;Signal;HPM_P1;HPM_P2
2023/05/23 00:01:15;;;;;;;;;;;19.10;62.40;;;;;;5035447;28;1255;-69
2023/05/23 00:03:41;;;;;;;;;;;19.10;62.40;;;;;;5028360;28;1383;-69
2023/05/23 00:06:07;;;;;;;;;;;19.10;62.40;;;;;;5039288;28;1906;-69
2023/05/23 00:08:32;;;;;;;;;;;19.10;62.40;;;;;;5037881;28;928;-69
2023/05/23 00:10:57;;;;;;;;;;;19.10;62.50;;;;;;5036748;28;1338;-69
2023/05/23 00:13:23;;;;;;;;;;;19.10;62.40;;;;;;5035554;28;1372;-68
2023/05/23 00:15:49;;;;;;;;;;;19.10;62.40;;;;;;5040674;28;1343;-68
2023/05/23 00:18:15;;;;;;;;;;;19.10;62.50;;;;;;5008880;28;1365;-68
2023/05/23 00:20:41;;;;;;;;;;;19.10;62.50;;;;;;5037844;28;867;-68
2023/05/23 00:23:08;;;;;;;;;;;19.10;62.50;;;;;;5038310;28;1190;-68
2023/05/23 00:25:34;;;;;;;;;;;19.10;62.50;;;;;;5019655;28;1886;-68
2023/05/23 00:28:00;;;;;;;;;;;19.10;62.50;;;;;;5020663;28;954;-69
2023/05/23 00:30:26;;;;;;;;;;;19.10;62.50;;;;;;5034589;28;947;-69
2023/05/23 00:32:53;;;;;;;;;;;19.10;62.60;;;;;;5038811;28;1279;-69
2023/05/23 00:35:19;;;;;;;;;;;19.10;62.60;;;;;;5038347;28;1354;-69
2023/05/23 00:37:44;;;;;;;;;;;19.10;62.60;;;;;;5020229;28;1339;-69
2023/05/23 00:40:10;;;;;;;;;;;19.10;62.60;;;;;;5039076;28;910;-69
2023/05/23 00:42:36;;;;;;;;;;;19.10;62.70;;;;;;5037594;28;1261;-69
2023/05/23 00:45:01;;;;;;;;;;;19.10;62.70;;;;;;5040842;28;1949;-69
2023/05/23 00:47:27;;;;;;;;;;;19.10;62.70;;;;;;5037503;28;1069;-69
2023/05/23 00:49:52;;;;;;;;;;;19.10;62.60;;;;;;5025019;28;895;-69
2023/05/23 00:52:18;;;;;;;;;;;19.10;62.70;;;;;;5035666;28;1216;-69
2023/05/23 00:54:43;;;;;;;;;;;19.10;62.70;;;;;;5035146;28;837;-69
2023/05/23 00:57:09;;;;;;;;;;;19.10;62.70;;;;;;5040846;28;903;-69
2023/05/23 00:59:35;;;;;;;;;;;19.10;62.70;;;;;;5039347;28;828;-69
2023/05/23 01:02:00;;;;;;;;;;;19.10;62.70;;;;;;5038835;28;1252;-68
2023/05/23 01:04:27;;;;;;;;;;;19.10;62.70;;;;;;5024875;28;867;-69
2023/05/23 01:06:53;;;;;;;;;;;19.10;62.70;;;;;;5023580;28;1977;-69
2023/05/23 01:09:19;;;;;;;;;;;19.10;62.80;;;;;;5034878;28;879;-69
2023/05/23 01:11:51;;;;;;;;;;;19.10;62.80;;;;;;5034816;28;1369;-69
2023/05/23 01:14:17;;;;;;;;;;;19.10;63.60;;;;;;5039533;28;811;-69
2023/05/23 01:16:47;;;;;;;;;;;19.10;62.80;;;;;;5017076;28;1381;-68
2023/05/23 01:19:25;;;;;;;;;;;19.10;62.80;;;;;;5038272;28;886;-69
2023/05/23 01:21:52;;;;;;;;;;;19.10;62.80;;;;;;5036184;28;1368;-69
2023/05/23 01:24:35;;;;;;;;;;;19.00;62.80;;;;;;5023004;28;908;-69
2023/05/23 01:27:07;;;;;;;;;;;19.10;62.80;;;;;;5023623;28;1902;-68
2023/05/23 01:29:43;;;;;;;;;;;19.10;62.90;;;;;;5029524;28;912;-68
2023/05/23 01:32:10;;;;;;;;;;;19.10;62.90;;;;;;5018896;28;1293;-68
2023/05/23 01:34:35;;;;;;;;;;;19.00;62.90;;;;;;5029497;28;991;-68
2023/05/23 01:37:01;;;;;;;;;;;19.00;62.80;;;;;;5035211;28;922;-68
2023/05/23 01:39:26;;;;;;;;;;;19.00;62.90;;;;;;5041649;28;786;-69
2023/05/23 01:41:52;;;;;;;;;;;19.10;62.90;;;;;;5040387;28;1366;-68
2023/05/23 01:44:17;;;;;;;;;;;19.00;62.90;;;;;;5021261;28;904;-69
2023/05/23 01:46:43;;;;;;;;;;;19.00;63.00;;;;;;5011676;28;1910;-68
2023/05/23 01:49:09;;;;;;;;;;;19.00;62.90;;;;;;5019338;28;851;-68
2023/05/23 01:51:35;;;;;;;;;;;19.00;62.90;;;;;;5025214;28;1366;-69
2023/05/23 01:54:00;;;;;;;;;;;19.00;62.90;;;;;;5027692;28;1157;-68
2023/05/23 01:56:29;;;;;;;;;;;19.10;63.00;;;;;;5043352;28;812;-69
2023/05/23 01:58:54;;;;;;;;;;;19.10;63.10;;;;;;5021690;28;851;-69
2023/05/23 02:01:20;;;;;;;;;;;19.00;63.00;;;;;;5027164;28;1372;-69
2023/05/23 02:03:45;;;;;;;;;;;19.10;63.00;;;;;;5030473;28;864;-69
2023/05/23 02:06:11;;;;;;;;;;;19.00;63.00;;;;;;5040152;28;1914;-69
2023/05/23 02:08:36;;;;;;;;;;;19.10;63.10;;;;;;5038125;28;858;-69
2023/05/23 02:11:02;;;;;;;;;;;19.00;63.10;;;;;;5035923;28;1257;-69
2023/05/23 02:13:27;;;;;;;;;;;19.00;63.10;;;;;;5025104;28;1022;-69
2023/05/23 02:15:53;;;;;;;;;;;19.10;63.10;;;;;;5038804;28;1357;-69
2023/05/23 02:18:19;;;;;;;;;;;19.10;63.20;;;;;;5028757;28;1666;-69
2023/05/23 02:20:44;;;;;;;;;;;19.00;63.10;;;;;;5032433;28;1250;-69
2023/05/23 02:23:10;;;;;;;;;;;19.00;63.10;;;;;;5044310;28;852;-69
2023/05/23 02:25:35;;;;;;;;;;;19.10;63.20;;;;;;5040156;28;1967;-69
2023/05/23 02:28:00;;;;;;;;;;;19.10;63.20;;;;;;5040499;28;850;-69
2023/05/23 02:30:26;;;;;;;;;;;19.00;63.10;;;;;;5039777;28;946;-69
2023/05/23 02:32:52;;;;;;;;;;;19.10;63.20;;;;;;5038656;28;1339;-69
2023/05/23 02:35:17;;;;;;;;;;;19.00;63.10;;;;;;5042572;28;1479;-69
2023/05/23 02:37:43;;;;;;;;;;;19.00;63.10;;;;;;5026248;28;888;-69
2023/05/23 02:40:09;;;;;;;;;;;19.00;63.20;;;;;;5042359;28;869;-68
2023/05/23 02:42:34;;;;;;;;;;;19.00;63.20;;;;;;5040826;28;1248;-69
2023/05/23 02:45:00;;;;;;;;;;;19.00;63.20;;;;;;5027060;28;1983;-69
2023/05/23 02:47:25;;;;;;;;;;;19.10;63.30;;;;;;5042000;28;882;-69
2023/05/23 02:49:51;;;;;;;;;;;19.00;63.20;;;;;;5040674;28;892;-69
2023/05/23 02:52:16;;;;;;;;;;;19.10;63.30;;;;;;5040288;28;1249;-68
2023/05/23 02:54:42;;;;;;;;;;;19.10;63.30;;;;;;5043213;28;883;-68
2023/05/23 02:57:07;;;;;;;;;;;19.00;63.20;;;;;;5025554;28;999;-68
2023/05/23 02:59:33;;;;;;;;;;;19.00;63.30;;;;;;5042817;28;851;-68
2023/05/23 03:01:58;;;;;;;;;;;19.00;63.40;;;;;;5039976;28;2077;-69
2023/05/23 03:04:24;;;;;;;;;;;19.00;63.30;;;;;;5040233;28;975;-68
2023/05/23 03:06:53;;;;;;;;;;;19.00;63.30;;;;;;5040364;28;1981;-68
2023/05/23 03:09:18;;;;;;;;;;;19.00;63.30;;;;;;5024106;28;892;-68
2023/05/23 03:11:44;;;;;;;;;;;19.10;63.40;;;;;;5035299;28;1273;-69
2023/05/23 03:14:09;;;;;;;;;;;19.00;63.30;;;;;;5037701;28;834;-71
2023/05/23 03:16:35;;;;;;;;;;;19.10;63.40;;;;;;5028586;28;1273;-68
2023/05/23 03:19:00;;;;;;;;;;;19.00;63.40;;;;;;5037229;28;1066;-69
2023/05/23 03:21:26;;;;;;;;;;;19.00;63.40;;;;;;5039718;28;1245;-69
2023/05/23 03:23:51;;;;;;;;;;;19.00;63.40;;;;;;5022309;28;828;-69
2023/05/23 03:26:17;;;;;;;;;;;19.10;63.50;;;;;;5041741;28;1923;-69
2023/05/23 03:28:42;;;;;;;;;;;19.00;63.40;;;;;;5039801;28;854;-68
2023/05/23 03:31:08;;;;;;;;;;;19.00;63.40;;;;;;5041644;28;1276;-69
2023/05/23 03:33:33;;;;;;;;;;;19.00;63.40;;;;;;5040780;28;1390;-69
2023/05/23 03:35:59;;;;;;;;;;;19.00;63.40;;;;;;5038059;28;854;-69
2023/05/23 03:38:24;;;;;;;;;;;19.00;63.50;;;;;;5035772;28;900;-69
2023/05/23 03:40:50;;;;;;;;;;;19.00;63.40;;;;;;5042126;28;1283;-69
2023/05/23 03:43:15;;;;;;;;;;;19.00;63.40;;;;;;5036867;28;864;-69
2023/05/23 03:45:41;;;;;;;;;;;19.00;63.50;;;;;;5037577;28;1965;-69
2023/05/23 03:48:06;;;;;;;;;;;19.00;63.50;;;;;;5039074;28;892;-69
2023/05/23 03:50:32;;;;;;;;;;;19.00;63.50;;;;;;5039279;28;834;-69
2023/05/23 03:52:57;;;;;;;;;;;19.00;63.50;;;;;;5039940;28;1337;-68
2023/05/23 03:55:23;;;;;;;;;;;19.00;63.50;;;;;;5039786;28;1366;-68
2023/05/23 03:57:49;;;;;;;;;;;19.00;63.50;;;;;;5037721;28;791;-68
2023/05/23 04:00:15;;;;;;;;;;;19.00;63.60;;;;;;5024980;28;848;-69
2023/05/23 04:02:40;;;;;;;;;;;19.00;63.60;;;;;;5038059;28;1348;-68
2023/05/23 04:05:06;;;;;;;;;;;19.00;63.70;;;;;;5037070;28;1971;-69
2023/05/23 04:07:33;;;;;;;;;;;19.00;63.60;;;;;;5036955;28;856;-69
2023/05/23 04:09:59;;;;;;;;;;;19.00;63.60;;;;;;5024744;28;828;-69
2023/05/23 04:12:24;;;;;;;;;;;19.00;63.60;;;;;;5036254;28;1384;-69
2023/05/23 04:14:50;;;;;;;;;;;19.00;63.60;;;;;;5022458;28;989;-69
2023/05/23 04:17:15;;;;;;;;;;;19.00;63.60;;;;;;5039873;28;827;-68
2023/05/23 04:19:41;;;;;;;;;;;19.00;63.60;;;;;;5008226;28;1324;-69
2023/05/23 04:22:06;;;;;;;;;;;19.00;63.60;;;;;;5037519;28;1237;-69
2023/05/23 04:24:32;;;;;;;;;;;19.00;63.70;;;;;;5041758;28;910;-69
2023/05/23 04:26:58;;;;;;;;;;;19.00;63.60;;;;;;5041983;28;1890;-69
2023/05/23 04:29:25;;;;;;;;;;;19.00;63.60;;;;;;5040210;28;1006;-69
2023/05/23 04:31:50;;;;;;;;;;;19.00;63.70;;;;;;5037202;28;1325;-69
2023/05/23 04:34:16;;;;;;;;;;;19.00;63.70;;;;;;5041683;28;1398;-69
2023/05/23 04:36:43;;;;;;;;;;;19.00;63.70;;;;;;5038613;28;1026;-69
2023/05/23 04:39:09;;;;;;;;;;;19.00;63.70;;;;;;5023581;28;877;-69
2023/05/23 04:41:35;;;;;;;;;;;19.00;63.70;;;;;;5037518;28;1373;-69
2023/05/23 04:44:01;;;;;;;;;;;19.00;63.70;;;;;;5022333;28;882;-69
2023/05/23 04:46:26;;;;;;;;;;;19.00;63.70;;;;;;5039511;28;1914;-69
2023/05/23 04:48:52;;;;;;;;;;;19.00;63.70;;;;;;5040468;28;932;-69
2023/05/23 04:51:20;;;;;;;;;;;19.00;63.70;;;;;;5036754;28;1245;-69
2023/05/23 04:53:46;;;;;;;;;;;19.00;63.70;;;;;;5036460;28;852;-69
2023/05/23 04:56:11;;;;;;;;;;;19.00;63.70;;;;;;5037320;28;1039;-69
2023/05/23 04:58:39;;;;;;;;;;;19.00;63.80;;;;;;5041578;28;856;-69
2023/05/23 05:01:05;;;;;;;;;;;19.00;63.80;;;;;;5022277;28;1351;-69
2023/05/23 05:03:31;;;;;;;;;;;19.00;63.80;;;;;;5038765;28;859;-69
2023/05/23 05:05:56;;;;;;;;;;;19.00;64.50;;;;;;5037427;28;1973;-69
2023/05/23 05:08:22;;;;;;;;;;;19.00;63.80;;;;;;5036058;28;876;-68
2023/05/23 05:10:47;;;;;;;;;;;19.00;63.80;;;;;;5034526;28;1393;-69
2023/05/23 05:13:13;;;;;;;;;;;19.00;63.80;;;;;;5034609;28;876;-69
2023/05/23 05:15:38;;;;;;;;;;;19.00;63.80;;;;;;5038426;28;1381;-69
2023/05/23 05:18:05;;;;;;;;;;;19.00;63.80;;;;;;5035243;28;1001;-68
2023/05/23 05:20:30;;;;;;;;;;;19.00;63.80;;;;;;5035457;28;1013;-69
2023/05/23 05:22:58;;;;;;;;;;;19.00;63.90;;;;;;5033465;28;1220;-69
2023/05/23 05:25:26;;;;;;;;;;;19.00;63.90;;;;;;5020240;28;1906;-69
2023/05/23 05:27:51;;;;;;;;;;;19.00;63.90;;;;;;5028149;28;867;-69
2023/05/23 05:30:17;;;;;;;;;;;19.00;63.90;;;;;;5043138;28;946;-69
2023/05/23 05:32:45;;;;;;;;;;;19.00;63.90;;;;;;5038920;28;1908;-67
2023/05/23 05:35:12;;;;;;;;;;;19.00;63.90;;;;;;5041818;28;2094;-68
2023/05/23 05:37:38;;;;;;;;;;;19.00;63.90;;;;;;5043784;28;1476;-67
2023/05/23 05:40:06;;;;;;;;;;;19.00;63.90;;;;;;5039205;28;967;-67
2023/05/23 05:42:31;;;;;;;;;;;19.00;63.90;;;;;;5041362;28;1227;-67
2023/05/23 05:44:57;;;;;;;;;;;19.00;63.90;;;;;;5042218;28;1014;-67
2023/05/23 05:47:22;;;;;;;;;;;19.00;63.90;;;;;;5038425;28;1906;-67
2023/05/23 05:49:48;;;;;;;;;;;19.00;64.00;;;;;;5039777;28;1658;-67
2023/05/23 05:52:13;;;;;;;;;;;19.00;64.00;;;;;;5041244;28;1262;-67
2023/05/23 05:54:38;;;;;;;;;;;19.00;64.00;;;;;;5041750;28;844;-67
2023/05/23 05:57:04;;;;;;;;;;;19.00;64.00;;;;;;5026450;28;5075;-67
2023/05/23 05:59:29;;;;;;;;;;;19.00;64.00;;;;;;5028742;28;4070;-67
2023/05/23 06:01:55;;;;;;;;;;;19.00;64.80;;;;;;5038099;28;1310;-69
2023/05/23 06:04:21;;;;;;;;;;;19.00;63.90;;;;;;5041539;28;781;-69
2023/05/23 06:06:46;;;;;;;;;;;19.00;63.90;;;;;;5038905;28;1981;-69
2023/05/23 06:09:11;;;;;;;;;;;19.00;64.00;;;;;;5039864;28;864;-69
2023/05/23 06:11:39;;;;;;;;;;;19.00;64.10;;;;;;5032041;28;4264;-67
2023/05/23 06:14:08;;;;;;;;;;;19.00;64.20;;;;;;5038862;28;887;-68
2023/05/23 06:16:33;;;;;;;;;;;19.00;64.00;;;;;;5041114;28;935;-69
2023/05/23 06:18:59;;;;;;;;;;;19.00;63.80;;;;;;5043732;28;853;-70
2023/05/23 06:21:24;;;;;;;;;;;19.00;63.80;;;;;;5041975;28;1261;-69
2023/05/23 06:23:51;;;;;;;;;;;19.00;63.70;;;;;;5040517;28;932;-68
2023/05/23 06:26:16;;;;;;;;;;;19.00;63.50;;;;;;5040268;28;1981;-69
2023/05/23 06:28:42;;;;;;;;;;;19.00;63.60;;;;;;5038953;28;851;-68
2023/05/23 06:31:10;;;;;;;;;;;19.00;63.40;;;;;;5039955;28;1310;-68
2023/05/23 06:33:36;;;;;;;;;;;19.00;63.20;;;;;;5039678;28;1301;-68
2023/05/23 06:36:01;;;;;;;;;;;19.00;63.10;;;;;;5038072;28;819;-69
2023/05/23 06:38:28;;;;;;;;;;;19.00;63.10;;;;;;5041482;28;845;-68
2023/05/23 06:40:54;;;;;;;;;;;19.00;62.90;;;;;;5026402;28;1365;-68
2023/05/23 06:43:19;;;;;;;;;;;19.00;63.10;;;;;;5043646;28;912;-68
2023/05/23 06:45:45;;;;;;;;;;;19.00;63.10;;;;;;5038493;28;1914;-69
2023/05/23 06:48:11;;;;;;;;;;;19.00;63.20;;;;;;5024784;28;923;-67
2023/05/23 06:50:36;;;;;;;;;;;19.00;63.10;;;;;;5040992;28;871;-67
2023/05/23 06:53:02;;;;;;;;;;;19.00;63.00;;;;;;5038704;28;1244;-67
2023/05/23 06:55:27;;;;;;;;;;;19.00;63.10;;;;;;5038047;28;899;-67
2023/05/23 06:57:53;;;;;;;;;;;19.00;63.10;;;;;;5039030;28;1003;-67
2023/05/23 07:00:18;;;;;;;;;;;19.00;63.10;;;;;;5036827;28;809;-68
2023/05/23 07:02:50;;;;;;;;;;;19.00;63.10;;;;;;5028225;28;1287;-68
2023/05/23 07:05:16;;;;;;;;;;;19.00;63.20;;;;;;5026575;28;1910;-68
2023/05/23 07:07:41;;;;;;;;;;;19.00;63.10;;;;;;5023862;28;1192;-68
2023/05/23 07:10:07;;;;;;;;;;;19.00;63.20;;;;;;5023732;28;964;-68
2023/05/23 07:12:33;;;;;;;;;;;19.00;63.10;;;;;;5037546;28;1252;-67
2023/05/23 07:14:58;;;;;;;;;;;19.00;63.10;;;;;;5039532;28;1345;-68
2023/05/23 07:17:24;;;;;;;;;;;19.00;63.00;;;;;;5037961;28;871;-68
2023/05/23 07:19:49;;;;;;;;;;;19.00;63.00;;;;;;5040674;28;1592;-68
2023/05/23 07:22:15;;;;;;;;;;;19.00;63.10;;;;;;5025785;28;1912;-68
2023/05/23 07:24:40;;;;;;;;;;;19.00;63.10;;;;;;5039532;28;1517;-68
2023/05/23 07:27:06;;;;;;;;;;;19.00;63.10;;;;;;5043817;28;1961;-69
2023/05/23 07:29:40;;;;;;;;;;;19.10;63.10;;;;;;5011834;28;1545;-69
2023/05/23 07:32:06;;;;;;;;;;;19.00;63.50;;;;;;5043403;28;1417;-70
2023/05/23 07:34:31;;;;;;;;;;;19.10;64.00;;;;;;5047592;28;1619;-69
2023/05/23 07:36:57;;;;;;;;;;;19.10;64.20;;;;;;5042471;28;1500;-69
2023/05/23 07:39:23;;;;;;;;;;;19.10;64.20;;;;;;5045176;28;1231;-70
2023/05/23 07:41:49;;;;;;;;;;;19.10;64.20;;;;;;5046593;28;1342;-69
2023/05/23 07:44:15;;;;;;;;;;;19.20;64.30;;;;;;5028992;28;1568;-69
2023/05/23 07:46:40;;;;;;;;;;;19.20;64.40;;;;;;5030253;28;1906;-69
2023/05/23 07:49:06;;;;;;;;;;;19.20;65.10;;;;;;5048491;28;1729;-70
2023/05/23 07:51:31;;;;;;;;;;;19.20;65.30;;;;;;5047118;28;1638;-69
2023/05/23 07:53:57;;;;;;;;;;;19.30;65.30;;;;;;5047510;28;1456;-70
2023/05/23 07:56:22;;;;;;;;;;;19.30;65.40;;;;;;5029380;28;1498;-70
2023/05/23 07:58:48;;;;;;;;;;;19.30;65.50;;;;;;5042008;28;1406;-69
2023/05/23 08:01:13;;;;;;;;;;;19.30;65.60;;;;;;5043550;28;1486;-70
2023/05/23 08:03:39;;;;;;;;;;;19.40;65.80;;;;;;5030173;28;1829;-70
2023/05/23 08:06:06;;;;;;;;;;;19.40;65.90;;;;;;5042515;28;1973;-70
2023/05/23 08:08:32;;;;;;;;;;;19.40;66.00;;;;;;5037824;28;900;-70
2023/05/23 08:10:57;;;;;;;;;;;19.40;65.80;;;;;;5040843;28;1326;-70
2023/05/23 08:13:22;;;;;;;;;;;19.40;65.40;;;;;;5039947;28;738;-70
2023/05/23 08:15:48;;;;;;;;;;;19.40;65.30;;;;;;5037863;28;1319;-70
2023/05/23 08:18:13;;;;;;;;;;;19.40;65.50;;;;;;5037172;28;912;-69
2023/05/23 08:20:39;;;;;;;;;;;19.40;65.50;;;;;;5022628;28;1015;-70
2023/05/23 08:23:05;;;;;;;;;;;19.40;65.50;;;;;;5036612;28;1279;-70
2023/05/23 08:25:30;;;;;;;;;;;19.40;65.50;;;;;;5036416;28;1919;-70
2023/05/23 08:27:59;;;;;;;;;;;19.40;65.60;;;;;;5036856;28;844;-70
2023/05/23 08:30:25;;;;;;;;;;;19.40;65.70;;;;;;5038279;28;919;-70
2023/05/23 08:32:54;;;;;;;;;;;19.40;65.90;;;;;;5039277;28;1326;-70
2023/05/23 08:35:20;;;;;;;;;;;19.40;66.00;;;;;;5025582;28;1370;-70
2023/05/23 08:37:45;;;;;;;;;;;19.40;66.20;;;;;;5035945;28;831;-70
2023/05/23 08:40:12;;;;;;;;;;;19.40;66.40;;;;;;5033523;28;966;-70
2023/05/23 08:42:38;;;;;;;;;;;19.40;66.80;;;;;;5039513;28;1310;-69
2023/05/23 08:45:04;;;;;;;;;;;19.40;66.90;;;;;;5038638;28;1181;-69
2023/05/23 08:47:29;;;;;;;;;;;19.40;66.90;;;;;;5035672;28;1968;-69
2023/05/23 08:49:55;;;;;;;;;;;19.40;67.10;;;;;;5023942;28;843;-70
2023/05/23 08:52:21;;;;;;;;;;;19.40;67.30;;;;;;5038460;28;1316;-69
2023/05/23 08:54:46;;;;;;;;;;;19.40;67.40;;;;;;5023168;28;890;-69
2023/05/23 08:57:12;;;;;;;;;;;19.40;67.70;;;;;;5039069;28;935;-70
2023/05/23 08:59:37;;;;;;;;;;;19.40;67.80;;;;;;5021783;28;1085;-70
2023/05/23 09:02:03;;;;;;;;;;;19.40;67.90;;;;;;5026080;28;1369;-70
2023/05/23 09:04:31;;;;;;;;;;;19.40;68.10;;;;;;5027349;28;821;-70
2023/05/23 09:06:56;;;;;;;;;;;19.40;68.10;;;;;;5040965;28;1910;-70
2023/05/23 09:09:22;;;;;;;;;;;19.40;68.30;;;;;;5038896;28;882;-70
2023/05/23 09:11:47;;;;;;;;;;;19.40;68.40;;;;;;5041923;28;1228;-71
2023/05/23 09:14:14;;;;;;;;;;;19.40;68.40;;;;;;5045446;28;899;-70
2023/05/23 09:16:39;;;;;;;;;;;19.40;68.90;;;;;;5042697;28;1250;-70
2023/05/23 09:19:11;;;;;;;;;;;19.40;70.80;;;;;;5043416;28;876;-70
2023/05/23 09:21:40;;;;;;;;;;;19.50;70.90;;;;;;5041238;28;1311;-71
2023/05/23 09:24:06;;;;;;;;;;;19.60;71.00;;;;;;5024992;28;1385;-70
2023/05/23 09:26:31;;;;;;;;;;;19.60;70.80;;;;;;5039622;28;1954;-70
2023/05/23 09:28:58;;;;;;;;;;;19.60;70.60;;;;;;5040895;28;895;-71
2023/05/23 09:31:25;;;;;;;;;;;19.70;70.10;;;;;;5025619;28;1227;-71
2023/05/23 09:33:50;;;;;;;;;;;19.60;69.30;;;;;;5042244;28;1357;-71
2023/05/23 09:36:16;;;;;;;;;;;19.70;69.10;;;;;;5039646;28;887;-71
2023/05/23 09:38:42;;;;;;;;;;;19.70;69.10;;;;;;5040483;28;1002;-71
2023/05/23 09:41:10;;;;;;;;;;;19.60;69.10;;;;;;5032468;28;1344;-71
2023/05/23 09:43:37;;;;;;;;;;;19.60;68.90;;;;;;5025623;28;836;-71
2023/05/23 09:46:09;;;;;;;;;;;19.60;69.00;;;;;;5040177;28;1914;-71
2023/05/23 09:48:34;;;;;;;;;;;19.60;68.90;;;;;;5043184;28;811;-71
2023/05/23 09:51:09;;;;;;;;;;;19.60;69.00;;;;;;5041377;28;1239;-71
2023/05/23 09:53:34;;;;;;;;;;;19.60;69.00;;;;;;5042400;28;1213;-71
2023/05/23 09:56:00;;;;;;;;;;;19.60;68.90;;;;;;5028568;28;1296;-69
2023/05/23 09:58:26;;;;;;;;;;;19.60;69.60;;;;;;5042382;28;2070;-70
2023/05/23 10:00:53;;;;;;;;;;;19.60;69.60;;;;;;5030636;28;1275;-70
2023/05/23 10:03:21;;;;;;;;;;;19.70;69.60;;;;;;5023494;28;1261;-71
2023/05/23 10:05:47;;;;;;;;;;;19.70;69.50;;;;;;5036013;28;1906;-70
2023/05/23 10:08:13;;;;;;;;;;;19.70;69.40;;;;;;5037870;28;1271;-70
2023/05/23 10:11:00;;;;;;;;;;;19.70;69.30;;;;;;5041153;28;941;-70
2023/05/23 10:13:26;;;;;;;;;;;19.70;69.20;;;;;;5025475;28;1038;-70
2023/05/23 10:15:58;;;;;;;;;;;19.80;69.10;;;;;;5037121;28;1303;-70
2023/05/23 10:18:25;;;;;;;;;;;19.80;69.00;;;;;;5012045;28;1519;-70
2023/05/23 10:20:51;;;;;;;;;;;19.70;68.80;;;;;;5024839;28;1233;-70
2023/05/23 10:23:16;;;;;;;;;;;19.80;68.60;;;;;;5026458;28;927;-70
2023/05/23 10:25:42;;;;;;;;;;;19.80;68.50;;;;;;5026557;28;1894;-69
2023/05/23 10:28:08;;;;;;;;;;;19.80;68.40;;;;;;5027365;28;967;-70
2023/05/23 10:30:33;;;;;;;;;;;19.70;68.40;;;;;;5016153;28;1310;-69
2023/05/23 10:32:59;;;;;;;;;;;19.70;68.40;;;;;;5021830;28;1317;-70
2023/05/23 10:35:30;;;;;;;;;;;19.70;68.40;;;;;;5037294;28;1357;-70
2023/05/23 10:38:18;;;;;;;;;;;19.70;68.40;;;;;;5038066;28;824;-70
2023/05/23 10:40:50;;;;;;;;;;;19.70;68.40;;;;;;5025107;28;840;-70
2023/05/23 10:43:21;;;;;;;;;;;19.70;68.40;;;;;;5039605;28;816;-70
2023/05/23 10:45:49;;;;;;;;;;;19.60;68.40;;;;;;5040432;28;1957;-70
2023/05/23 10:48:16;;;;;;;;;;;19.60;68.50;;;;;;5037852;28;870;-70
2023/05/23 10:50:42;;;;;;;;;;;19.60;68.70;;;;;;5019900;28;1416;-70
2023/05/23 10:53:07;;;;;;;;;;;19.60;68.90;;;;;;5039205;28;1229;-70
2023/05/23 10:55:33;;;;;;;;;;;19.60;69.00;;;;;;5024738;28;881;-70
2023/05/23 10:58:08;;;;;;;;;;;19.60;69.00;;;;;;5025741;28;1092;-70
2023/05/23 11:00:34;;;;;;;;;;;19.60;69.10;;;;;;5041059;28;891;-70
2023/05/23 11:02:59;;;;;;;;;;;19.60;69.20;;;;;;5011664;28;1493;-70
2023/05/23 11:05:27;;;;;;;;;;;19.60;69.40;;;;;;5039883;28;1947;-70
2023/05/23 11:08:12;;;;;;;;;;;19.60;69.50;;;;;;5027874;28;909;-69
2023/05/23 11:10:50;;;;;;;;;;;19.60;69.90;;;;;;5038612;28;840;-69
2023/05/23 11:13:16;;;;;;;;;;;19.60;69.80;;;;;;5039820;28;1950;-70
2023/05/23 11:15:43;;;;;;;;;;;19.60;69.90;;;;;;5039706;28;1842;-70
2023/05/23 11:18:10;;;;;;;;;;;19.60;70.50;;;;;;5038358;28;1240;-70
2023/05/23 11:20:36;;;;;;;;;;;19.60;70.30;;;;;;5037730;28;1481;-70
2023/05/23 11:23:01;;;;;;;;;;;19.70;70.20;;;;;;5038556;28;2119;-70
2023/05/23 11:25:46;;;;;;;;;;;19.70;70.10;;;;;;5038501;28;1894;-70
2023/05/23 11:28:11;;;;;;;;;;;19.70;70.10;;;;;;5038628;28;1183;-70
2023/05/23 11:30:37;;;;;;;;;;;19.70;70.10;;;;;;5026648;28;839;-70
2023/05/23 11:33:07;;;;;;;;;;;19.60;70.10;;;;;;5023977;28;1293;-70
2023/05/23 11:35:33;;;;;;;;;;;19.60;70.30;;;;;;5039133;28;1245;-70
2023/05/23 11:37:59;;;;;;;;;;;19.60;70.30;;;;;;5022085;28;1493;-70
2023/05/23 11:40:25;;;;;;;;;;;19.60;70.20;;;;;;5023871;28;863;-70
2023/05/23 11:42:50;;;;;;;;;;;19.60;70.30;;;;;;5039771;28;1363;-70
2023/05/23 11:45:18;;;;;;;;;;;19.60;70.40;;;;;;5039094;28;880;-71
2023/05/23 11:47:44;;;;;;;;;;;19.60;70.40;;;;;;5042003;28;1974;-70
2023/05/23 11:50:09;;;;;;;;;;;19.60;70.30;;;;;;5039695;28;1724;-75
2023/05/23 11:52:35;;;;;;;;;;;19.60;70.40;;;;;;5040138;28;1263;-71
2023/05/23 11:55:00;;;;;;;;;;;19.60;70.70;;;;;;5042079;28;864;-70
2023/05/23 11:57:26;;;;;;;;;;;19.60;70.70;;;;;;5040366;28;1903;-71
2023/05/23 11:59:52;;;;;;;;;;;19.70;70.80;;;;;;5038731;28;1367;-72
2023/05/23 12:02:17;;;;;;;;;;;19.60;70.70;;;;;;5038843;28;1281;-71
2023/05/23 12:04:43;;;;;;;;;;;19.70;70.90;;;;;;5040091;28;1484;-72
2023/05/23 12:07:08;;;;;;;;;;;19.70;70.90;;;;;;5037465;28;1946;-71
2023/05/23 12:09:40;;;;;;;;;;;19.70;70.80;;;;;;5032840;28;1014;-71
2023/05/23 12:12:06;;;;;;;;;;;19.70;70.70;;;;;;5037220;28;2012;-71
2023/05/23 12:14:31;;;;;;;;;;;19.80;70.60;;;;;;5039688;28;886;-71
2023/05/23 12:16:57;;;;;;;;;;;19.80;70.50;;;;;;5024840;28;1388;-71
2023/05/23 12:19:22;;;;;;;;;;;19.80;70.40;;;;;;5036964;28;863;-72
2023/05/23 12:21:48;;;;;;;;;;;19.80;70.40;;;;;;5020448;28;1688;-71
2023/05/23 12:24:14;;;;;;;;;;;19.80;70.30;;;;;;5024648;28;1002;-72
2023/05/23 12:26:46;;;;;;;;;;;19.80;70.20;;;;;;5007988;28;1899;-71
2023/05/23 12:29:12;;;;;;;;;;;19.80;70.10;;;;;;5039384;28;907;-72
2023/05/23 12:31:37;;;;;;;;;;;19.80;70.00;;;;;;5037813;28;1255;-72
2023/05/23 12:34:03;;;;;;;;;;;19.80;70.10;;;;;;5025197;28;1455;-72
2023/05/23 12:36:31;;;;;;;;;;;19.80;70.20;;;;;;5037715;28;847;-72
2023/05/23 12:39:02;;;;;;;;;;;19.80;70.20;;;;;;5038587;28;845;-72
2023/05/23 12:41:28;;;;;;;;;;;19.80;70.20;;;;;;5038458;28;1248;-72
2023/05/23 12:43:54;;;;;;;;;;;19.80;70.10;;;;;;5023389;28;982;-72
2023/05/23 12:46:19;;;;;;;;;;;19.80;69.80;;;;;;5036749;28;1910;-72
2023/05/23 12:48:46;;;;;;;;;;;19.80;70.00;;;;;;5022718;28;1299;-72
2023/05/23 12:51:12;;;;;;;;;;;19.80;70.00;;;;;;5038823;28;1275;-72
2023/05/23 12:53:37;;;;;;;;;;;19.80;70.00;;;;;;5019443;28;924;-72
2023/05/23 12:56:03;;;;;;;;;;;19.80;70.10;;;;;;5022249;28;893;-71
2023/05/23 12:58:29;;;;;;;;;;;19.80;70.00;;;;;;5037846;28;898;-71
2023/05/23 13:00:54;;;;;;;;;;;19.80;69.80;;;;;;5038525;28;1253;-71
2023/05/23 13:03:20;;;;;;;;;;;19.70;69.90;;;;;;5040502;28;871;-71
2023/05/23 13:05:45;;;;;;;;;;;19.70;69.80;;;;;;5035359;28;1955;-71
2023/05/23 13:08:11;;;;;;;;;;;19.70;69.80;;;;;;5026396;28;837;-71
2023/05/23 13:10:37;;;;;;;;;;;19.70;69.80;;;;;;5036784;28;802;-71
2023/05/23 13:13:03;;;;;;;;;;;19.70;69.80;;;;;;5036688;28;1289;-72
2023/05/23 13:15:28;;;;;;;;;;;19.70;70.10;;;;;;5037524;28;1338;-72
2023/05/23 13:17:54;;;;;;;;;;;19.70;70.00;;;;;;5034865;28;820;-72
2023/05/23 13:20:20;;;;;;;;;;;19.70;70.00;;;;;;5037783;28;820;-72
2023/05/23 13:22:45;;;;;;;;;;;19.70;70.20;;;;;;5021804;28;1352;-72
2023/05/23 13:25:11;;;;;;;;;;;19.70;70.10;;;;;;5036889;28;906;-72
2023/05/23 13:27:36;;;;;;;;;;;19.70;70.10;;;;;;5037539;28;1981;-72
2023/05/23 13:30:02;;;;;;;;;;;19.70;70.30;;;;;;5036497;28;947;-72
2023/05/23 13:32:27;;;;;;;;;;;19.70;70.30;;;;;;5038977;28;1351;-70
2023/05/23 13:34:52;;;;;;;;;;;19.80;70.80;;;;;;5038461;28;1463;-70
2023/05/23 13:37:18;;;;;;;;;;;19.80;70.80;;;;;;5041188;28;879;-71
2023/05/23 13:39:43;;;;;;;;;;;19.80;70.70;;;;;;5038051;28;809;-71
2023/05/23 13:42:09;;;;;;;;;;;19.80;70.60;;;;;;5024469;28;1273;-71
2023/05/23 13:44:35;;;;;;;;;;;19.80;70.50;;;;;;5038096;28;988;-71
2023/05/23 13:47:11;;;;;;;;;;;19.80;70.40;;;;;;5025387;28;1971;-71
2023/05/23 13:49:36;;;;;;;;;;;19.80;70.30;;;;;;5026299;28;830;-71
2023/05/23 13:52:01;;;;;;;;;;;19.80;70.10;;;;;;5027465;28;1276;-71
2023/05/23 13:54:27;;;;;;;;;;;19.90;70.10;;;;;;5040651;28;884;-71
2023/05/23 13:56:52;;;;;;;;;;;19.90;70.00;;;;;;5039138;28;849;-71
2023/05/23 13:59:20;;;;;;;;;;;19.90;69.80;;;;;;5027926;28;1181;-71
2023/05/23 14:01:48;;;;;;;;;;;19.90;69.80;;;;;;5039164;28;1523;-71
2023/05/23 14:04:14;;;;;;;;;;;19.90;69.70;;;;;;5038937;28;824;-71
2023/05/23 14:06:39;;;;;;;;;;;19.90;69.70;;;;;;5036042;28;2001;-71
2023/05/23 14:09:05;;;;;;;;;;;19.90;69.70;;;;;;5040084;28;1027;-71
2023/05/23 14:11:30;;;;;;;;;;;19.90;69.60;;;;;;5040992;28;1359;-71
2023/05/23 14:13:56;;;;;;;;;;;19.90;69.60;;;;;;5028624;28;1055;-71
2023/05/23 14:16:21;;;;;;;;;;;19.80;69.50;;;;;;5038929;28;805;-71
2023/05/23 14:18:47;;;;;;;;;;;19.80;69.60;;;;;;5038877;28;947;-71
2023/05/23 14:21:12;;;;;;;;;;;19.90;69.70;;;;;;5040269;28;1341;-71
2023/05/23 14:23:38;;;;;;;;;;;19.80;69.80;;;;;;5042897;28;855;-71
2023/05/23 14:26:03;;;;;;;;;;;19.80;69.90;;;;;;5041313;28;1929;-71
2023/05/23 14:28:29;;;;;;;;;;;19.80;70.10;;;;;;5041146;28;1019;-71
2023/05/23 14:30:55;;;;;;;;;;;19.80;70.20;;;;;;5038691;28;1262;-71